Time;durP1;ratioP1;P1;durP2;ratioP2;P2;SDS_P1;SDS_P2;PMS_P1;PMS_P2;Temp;Humidity;BMP_temperature;BMP_pressure;BME280_temperature;BME280_humidity;BME280_pressure;Samples;Min_cycle;Max_cycle;Signal;HPM_P1;HPM_P2
2023/08/24 00:01:02;;;;;;;4.30;1.90;;;;;;;24.39;53.83;101756.25;4987577;28;20038;-64
2023/08/24 00:03:28;;;;;;;5.93;2.05;;;;;;;24.40;53.59;101757.09;4987178;28;20085;-64
2023/08/24 00:05:53;;;;;;;4.72;2.03;;;;;;;24.38;53.48;101738.59;4988038;28;20034;-65
2023/08/24 00:08:19;;;;;;;4.97;2.17;;;;;;;24.39;53.61;101745.59;4988768;28;20383;-64
2023/08/24 00:10:48;;;;;;;4.18;2.00;;;;;;;24.38;53.40;101751.09;4988263;28;20038;-64
2023/08/24 00:13:14;;;;;;;4.10;2.00;;;;;;;24.37;53.37;101747.59;4988307;28;20586;-64
2023/08/24 00:15:39;;;;;;;4.05;2.08;;;;;;;24.37;53.79;101760.91;4989581;28;20034;-64
2023/08/24 00:18:05;;;;;;;4.80;2.22;;;;;;;24.35;53.89;101754.84;4988184;28;20041;-64
2023/08/24 00:20:32;;;;;;;4.45;2.10;;;;;;;24.35;53.61;101749.53;4988555;28;20113;-63
2023/08/24 00:22:58;;;;;;;5.75;2.30;;;;;;;24.37;53.33;101730.75;4988248;28;20491;-65
2023/08/24 00:25:23;;;;;;;4.85;2.10;;;;;;;24.37;53.71;101728.94;4988382;28;20045;-64
2023/08/24 00:27:49;;;;;;;4.50;2.10;;;;;;;24.35;53.46;101727.38;4987941;28;20050;-64
2023/08/24 00:30:15;;;;;;;4.43;1.98;;;;;;;24.36;53.80;101731.75;4988209;28;20475;-64
2023/08/24 00:32:40;;;;;;;5.00;2.42;;;;;;;24.36;53.56;101732.56;4988878;28;20034;-64
2023/08/24 00:35:08;;;;;;;4.75;2.10;;;;;;;24.34;53.51;101731.03;4988002;28;20034;-64
2023/08/24 00:37:33;;;;;;;5.43;2.15;;;;;;;24.34;53.60;101726.56;4986886;28;20038;-64
2023/08/24 00:40:10;;;;;;;3.95;1.92;;;;;;;24.33;53.22;101722.22;4986237;28;20081;-66
2023/08/24 00:42:43;;;;;;;4.60;2.22;;;;;;;24.32;53.83;101711.69;4986810;28;20487;-64
2023/08/24 00:45:10;;;;;;;4.18;2.00;;;;;;;24.34;53.70;101709.72;4986157;28;20034;-64
2023/08/24 00:47:44;;;;;;;3.65;1.80;;;;;;;24.34;53.42;101709.72;4986759;28;20057;-63
2023/08/24 00:50:10;;;;;;;4.60;1.80;;;;;;;24.34;53.70;101707.06;4986158;28;20113;-63
2023/08/24 00:52:39;;;;;;;5.38;2.38;;;;;;;24.33;53.51;101708.88;4986385;28;20049;-64
2023/08/24 00:55:05;;;;;;;4.78;1.90;;;;;;;24.33;53.66;101716.06;4985825;28;20041;-64
2023/08/24 00:57:31;;;;;;;4.63;2.13;;;;;;;24.33;53.33;101721.38;4985819;28;20096;-63
2023/08/24 00:59:59;;;;;;;3.55;1.85;;;;;;;24.32;53.73;101714.38;4986450;28;20034;-65
2023/08/24 01:02:24;;;;;;;4.15;2.00;;;;;;;24.32;53.49;101712.53;4986177;28;20427;-64
2023/08/24 01:04:50;;;;;;;5.38;1.98;;;;;;;24.32;53.75;101698.38;4986013;28;20080;-64
2023/08/24 01:07:16;;;;;;;4.60;2.03;;;;;;;24.30;53.75;101703.84;4986981;28;20089;-64
2023/08/24 01:09:42;;;;;;;3.60;1.80;;;;;;;24.32;53.35;101712.53;4986532;28;20403;-64
2023/08/24 01:12:07;;;;;;;5.03;1.98;;;;;;;24.32;53.56;101709.03;4986862;28;20030;-64
2023/08/24 01:15:02;;;;;;;3.30;1.80;;;;;;;24.30;53.74;101719.00;4986804;28;20045;-64
2023/08/24 01:17:30;;;;;;;3.65;1.70;;;;;;;24.32;53.36;101719.69;4987112;28;20456;-66
2023/08/24 01:19:56;;;;;;;3.70;1.80;;;;;;;24.31;53.69;101710.88;4988162;28;20035;-64
2023/08/24 01:22:27;;;;;;;4.45;1.90;;;;;;;24.30;53.65;101705.69;4987445;28;20076;-64
2023/08/24 01:25:24;;;;;;;3.80;1.90;;;;;;;24.29;53.55;101696.84;4988031;28;20034;-65
2023/08/24 01:27:50;;;;;;;4.95;2.08;;;;;;;24.31;53.37;101704.69;4988125;28;20039;-64
2023/08/24 01:30:17;;;;;;;3.60;1.77;;;;;;;24.27;53.87;101697.00;4986946;28;20380;-65
2023/08/24 01:32:43;;;;;;;4.38;2.00;;;;;;;24.29;53.72;101702.16;4987178;28;20154;-64
2023/08/24 01:35:09;;;;;;;3.78;1.92;;;;;;;24.28;53.42;101705.81;4987136;28;20117;-65
2023/08/24 01:37:35;;;;;;;4.32;1.90;;;;;;;24.29;53.24;101706.66;4986392;28;20038;-64
2023/08/24 01:40:16;;;;;;;3.65;1.95;;;;;;;24.26;53.40;101697.16;4984552;28;20106;-66
2023/08/24 01:43:03;;;;;;;3.90;1.90;;;;;;;24.28;53.87;101700.50;4985994;28;20034;-65
2023/08/24 01:45:31;;;;;;;4.40;1.98;;;;;;;24.29;53.78;101701.34;4985497;28;20022;-64
2023/08/24 01:47:59;;;;;;;3.92;2.00;;;;;;;24.29;53.42;101702.16;4985587;28;20038;-64
2023/08/24 01:50:25;;;;;;;4.47;2.00;;;;;;;24.26;53.36;101700.66;4985963;28;20041;-64
2023/08/24 01:52:50;;;;;;;3.90;2.08;;;;;;;24.26;53.61;101692.66;4987626;28;20026;-65
2023/08/24 01:55:19;;;;;;;4.43;2.25;;;;;;;24.25;53.49;101701.63;4987073;28;20034;-65
2023/08/24 01:57:44;;;;;;;4.20;2.00;;;;;;;24.27;53.68;101710.31;4991172;28;20022;-65
2023/08/24 02:00:10;;;;;;;3.60;1.83;;;;;;;24.25;53.56;101706.94;4990776;28;20041;-64
2023/08/24 02:02:36;;;;;;;3.70;1.83;;;;;;;24.26;53.34;101705.97;4990708;28;20042;-66
2023/08/24 02:05:02;;;;;;;4.28;2.15;;;;;;;24.25;53.84;101698.13;4990326;28;21283;-65
2023/08/24 02:07:28;;;;;;;3.65;1.95;;;;;;;24.24;53.60;101699.97;4990064;28;20491;-64
2023/08/24 02:09:53;;;;;;;3.88;1.98;;;;;;;24.25;53.44;101698.94;4989046;28;20077;-65
2023/08/24 02:12:18;;;;;;;4.40;1.90;;;;;;;24.26;53.33;101683.84;4989969;28;20041;-64
2023/08/24 02:14:44;;;;;;;3.30;1.80;;;;;;;24.25;53.76;101677.66;4989436;28;20507;-63
2023/08/24 02:17:09;;;;;;;4.07;1.80;;;;;;;24.26;53.55;101687.31;4989384;28;20483;-64
2023/08/24 02:19:34;;;;;;;4.25;2.22;;;;;;;24.25;53.77;101679.47;4988994;28;20069;-64
2023/08/24 02:21:59;;;;;;;4.93;2.20;;;;;;;24.26;53.27;101699.81;4989900;28;20113;-64
2023/08/24 02:24:25;;;;;;;4.15;2.03;;;;;;;24.24;53.83;101689.31;4990164;28;20117;-65
2023/08/24 02:26:50;;;;;;;3.90;2.10;;;;;;;24.24;53.38;101686.63;4989735;28;20026;-64
2023/08/24 02:29:15;;;;;;;4.82;2.08;;;;;;;24.24;53.57;101681.31;4990485;28;20479;-64
2023/08/24 02:31:41;;;;;;;4.07;1.87;;;;;;;24.23;53.26;101678.78;4991427;28;20030;-64
2023/08/24 02:34:06;;;;;;;5.40;2.03;;;;;;;24.23;53.88;101694.78;4990139;28;20324;-64
2023/08/24 02:36:33;;;;;;;4.05;1.90;;;;;;;24.23;53.38;101690.28;4990507;28;20141;-64
2023/08/24 02:38:58;;;;;;;4.55;2.00;;;;;;;24.23;53.52;101686.78;4989839;28;20030;-66
2023/08/24 02:41:24;;;;;;;3.72;2.10;;;;;;;24.22;53.70;101679.78;4990216;28;20482;-64
2023/08/24 02:43:49;;;;;;;4.70;2.15;;;;;;;24.23;53.56;101671.63;4990642;28;20483;-65
2023/08/24 02:46:14;;;;;;;5.88;2.58;;;;;;;24.23;53.39;101660.97;4990766;28;20073;-66
2023/08/24 02:48:40;;;;;;;4.28;2.10;;;;;;;24.23;53.50;101660.97;4990074;28;20038;-64
2023/08/24 02:51:06;;;;;;;4.00;2.00;;;;;;;24.22;53.46;101647.81;4989660;28;20479;-66
2023/08/24 02:53:31;;;;;;;4.28;2.10;;;;;;;24.21;53.54;101631.00;4989044;28;20068;-65
2023/08/24 02:55:57;;;;;;;4.78;1.90;;;;;;;24.22;53.63;101626.50;4988230;28;20030;-65
2023/08/24 02:58:23;;;;;;;3.30;1.95;;;;;;;24.20;53.64;101621.31;4988829;28;20042;-64
2023/08/24 03:00:48;;;;;;;4.40;2.20;;;;;;;24.21;53.70;101608.84;4989397;28;20038;-65
2023/08/24 03:03:14;;;;;;;4.07;2.15;;;;;;;24.21;53.85;101601.72;4988225;28;20501;-63
2023/08/24 03:05:40;;;;;;;4.32;1.83;;;;;;;24.20;53.67;101578.72;4988699;28;20030;-64
2023/08/24 03:08:05;;;;;;;5.30;2.30;;;;;;;24.22;54.01;101559.94;4988681;28;20030;-63
2023/08/24 03:10:34;;;;;;;4.75;2.35;;;;;;;24.23;54.10;101550.97;4989706;28;20030;-64
2023/08/24 03:12:59;;;;;;;4.03;2.10;;;;;;;24.21;53.72;101545.78;4989875;28;20046;-64
2023/08/24 03:15:24;;;;;;;4.03;1.98;;;;;;;24.21;54.02;101545.78;4989128;28;20037;-63
2023/08/24 03:17:50;;;;;;;4.00;2.05;;;;;;;24.21;53.97;101564.44;4990029;28;20061;-63
2023/08/24 03:20:16;;;;;;;4.55;2.13;;;;;;;24.20;53.92;101562.75;4989566;28;20130;-63
2023/08/24 03:22:41;;;;;;;3.78;2.10;;;;;;;24.21;54.09;101552.91;4988653;28;20462;-63
2023/08/24 03:25:07;;;;;;;4.50;2.30;;;;;;;24.18;54.21;101538.09;4989514;28;20081;-63
2023/08/24 03:27:32;;;;;;;6.25;2.38;;;;;;;24.18;54.06;101519.44;4989366;28;20046;-65
2023/08/24 03:29:58;;;;;;;3.95;1.90;;;;;;;24.20;54.02;101520.13;4989742;28;20022;-63
2023/08/24 03:32:24;;;;;;;4.22;2.20;;;;;;;24.20;54.15;101516.63;4988354;28;20058;-64
2023/08/24 03:34:49;;;;;;;3.60;1.60;;;;;;;24.19;54.09;101505.13;4988743;28;20069;-64
2023/08/24 03:37:14;;;;;;;5.17;2.03;;;;;;;24.20;54.05;101496.16;4989198;28;20034;-65
2023/08/24 03:39:41;;;;;;;4.22;2.15;;;;;;;24.20;54.18;101490.00;4988791;28;20272;-64
2023/08/24 03:42:06;;;;;;;3.95;2.08;;;;;;;24.20;53.84;101482.03;4988959;28;20080;-64
2023/08/24 03:44:31;;;;;;;4.15;1.85;;;;;;;24.18;54.21;101471.50;4989116;28;20038;-64
2023/08/24 03:46:57;;;;;;;4.63;2.20;;;;;;;24.19;54.17;101473.16;4989127;28;20026;-63
2023/08/24 03:49:22;;;;;;;4.45;2.40;;;;;;;24.19;54.05;101472.34;4988462;28;20038;-63
2023/08/24 03:51:48;;;;;;;3.92;2.00;;;;;;;24.19;54.24;101467.84;4988370;28;20076;-63
2023/08/24 03:54:13;;;;;;;4.85;2.30;;;;;;;24.20;54.19;101474.03;4987682;28;20093;-64
2023/08/24 03:56:39;;;;;;;6.75;2.63;;;;;;;24.19;54.24;101486.47;4987583;28;20023;-64
2023/08/24 03:59:04;;;;;;;4.88;2.55;;;;;;;24.19;54.44;101489.16;4986913;28;20030;-63
2023/08/24 04:01:30;;;;;;;5.80;2.72;;;;;;;24.20;54.32;101488.16;4987278;28;20030;-62
2023/08/24 04:03:55;;;;;;;4.80;2.60;;;;;;;24.18;53.98;101489.28;4987645;28;20041;-63
2023/08/24 04:06:20;;;;;;;6.43;3.13;;;;;;;24.19;54.07;101493.66;4987551;28;20866;-62
2023/08/24 04:08:46;;;;;;;4.80;2.58;;;;;;;24.18;54.08;101486.63;4987256;28;20026;-63
2023/08/24 04:11:11;;;;;;;5.97;2.83;;;;;;;24.18;54.03;101499.94;4987488;28;20030;-64
2023/08/24 04:13:36;;;;;;;4.43;2.70;;;;;;;24.18;54.04;101506.13;4987169;28;20038;-64
2023/08/24 04:16:03;;;;;;;6.00;3.08;;;;;;;24.19;54.09;101506.97;4987071;28;20026;-64
2023/08/24 04:18:29;;;;;;;6.63;3.50;;;;;;;24.19;54.11;101514.94;4986809;28;20030;-64
2023/08/24 04:20:54;;;;;;;5.70;3.08;;;;;;;24.19;54.06;101506.97;4986969;28;20442;-64
2023/08/24 04:23:25;;;;;;;5.47;3.20;;;;;;;24.17;54.60;101512.44;4987602;28;20035;-66
2023/08/24 04:25:50;;;;;;;5.88;2.95;;;;;;;24.19;54.58;101514.94;4986831;28;20026;-64
2023/08/24 04:28:15;;;;;;;5.20;3.17;;;;;;;24.19;54.30;101523.75;4986628;28;20483;-63
2023/08/24 04:30:49;;;;;;;5.60;3.10;;;;;;;24.17;54.05;101520.41;4986702;28;20547;-63
2023/08/24 04:33:14;;;;;;;7.28;3.45;;;;;;;24.18;54.16;101530.09;4986919;28;20712;-65
2023/08/24 04:35:40;;;;;;;5.53;3.28;;;;;;;24.19;54.09;101521.09;4986990;28;20034;-64
2023/08/24 04:38:05;;;;;;;5.03;2.92;;;;;;;24.18;54.03;101515.94;4987610;28;20510;-64
2023/08/24 04:40:55;;;;;;;7.88;3.20;;;;;;;24.17;54.56;101520.41;4986944;28;20030;-63
2023/08/24 04:43:23;;;;;;;4.88;2.90;;;;;;;24.17;54.15;101520.41;4986148;28;20033;-64
2023/08/24 04:45:54;;;;;;;6.15;3.33;;;;;;;24.17;54.31;101523.09;4986802;28;20122;-66
2023/08/24 04:48:23;;;;;;;6.75;3.50;;;;;;;24.16;54.39;101521.41;4987646;28;21143;-66
2023/08/24 04:50:49;;;;;;;5.60;3.22;;;;;;;24.16;54.37;101518.75;4987789;28;20125;-63
2023/08/24 04:53:17;;;;;;;6.00;3.20;;;;;;;24.17;54.64;101527.59;4987619;28;20084;-65
2023/08/24 04:55:43;;;;;;;7.07;3.45;;;;;;;24.16;54.18;101515.25;4987900;28;20062;-63
2023/08/24 04:58:09;;;;;;;4.88;3.38;;;;;;;24.16;54.34;101512.59;4987948;28;20073;-64
2023/08/24 05:00:35;;;;;;;6.38;4.00;;;;;;;24.15;54.33;101509.09;4985773;28;20470;-64
2023/08/24 05:03:02;;;;;;;6.75;3.60;;;;;;;24.15;54.12;101508.22;4986854;28;20506;-64
2023/08/24 05:05:29;;;;;;;6.85;3.55;;;;;;;24.15;54.67;101517.06;4986940;28;20022;-64
2023/08/24 05:07:55;;;;;;;5.50;3.38;;;;;;;24.14;54.34;101520.72;4988004;28;20113;-63
2023/08/24 05:10:20;;;;;;;5.00;3.10;;;;;;;24.14;54.53;101531.38;4988186;28;20122;-65
2023/08/24 05:12:45;;;;;;;5.80;3.35;;;;;;;24.14;54.27;101531.38;4987038;28;20034;-65
2023/08/24 05:15:11;;;;;;;6.40;3.53;;;;;;;24.15;54.20;101530.41;4987829;28;20033;-64
2023/08/24 05:17:36;;;;;;;6.13;3.63;;;;;;;24.14;54.43;101528.72;4987013;28;20430;-65
2023/08/24 05:20:03;;;;;;;6.43;3.60;;;;;;;24.15;54.72;101521.53;4987172;28;20045;-66
2023/08/24 05:22:29;;;;;;;6.72;3.42;;;;;;;24.14;54.26;101519.88;4987402;28;20454;-65
2023/08/24 05:24:54;;;;;;;7.07;3.53;;;;;;;24.14;54.47;101512.72;4987424;28;20129;-64
2023/08/24 05:27:19;;;;;;;6.55;3.70;;;;;;;24.13;54.79;101503.06;4987365;28;20046;-64
2023/08/24 05:29:45;;;;;;;6.90;4.10;;;;;;;24.12;54.73;101493.41;4986882;28;20121;-64
2023/08/24 05:32:10;;;;;;;5.53;3.50;;;;;;;24.13;54.23;101494.25;4987031;28;20061;-67
2023/08/24 05:34:35;;;;;;;7.45;3.80;;;;;;;24.10;54.51;101487.41;4987336;28;20096;-64
2023/08/24 05:37:01;;;;;;;6.90;3.33;;;;;;;24.13;54.33;101492.41;4986741;28;20537;-67
2023/08/24 05:39:26;;;;;;;7.15;3.72;;;;;;;24.12;54.67;101498.75;4987250;28;20264;-64
2023/08/24 05:41:52;;;;;;;6.03;3.45;;;;;;;24.11;54.74;101491.72;4986965;28;20069;-66
2023/08/24 05:44:18;;;;;;;5.50;3.30;;;;;;;24.12;54.42;101497.91;4987323;28;20022;-65
2023/08/24 05:46:44;;;;;;;5.93;3.30;;;;;;;24.12;54.69;101489.91;4986580;28;20038;-65
2023/08/24 05:49:09;;;;;;;6.57;3.47;;;;;;;24.11;54.64;101486.41;4987226;28;20084;-64
2023/08/24 05:51:35;;;;;;;6.18;3.75;;;;;;;24.13;54.93;101488.91;4986841;28;20042;-64
2023/08/24 05:54:00;;;;;;;6.57;3.30;;;;;;;24.09;54.49;101489.22;4986773;28;20042;-65
2023/08/24 05:56:26;;;;;;;6.47;3.70;;;;;;;24.12;54.71;101484.59;4986474;28;20311;-65
2023/08/24 05:58:51;;;;;;;6.93;3.83;;;;;;;24.12;54.29;101466.78;4985767;28;20038;-64
2023/08/24 06:01:16;;;;;;;7.32;3.97;;;;;;;24.12;54.69;101457.97;4986628;28;20576;-64
2023/08/24 06:03:42;;;;;;;6.72;3.60;;;;;;;24.11;54.88;101449.13;4986829;28;20042;-64
2023/08/24 06:06:08;;;;;;;6.50;3.53;;;;;;;24.13;54.86;101448.97;4986928;28;20045;-64
2023/08/24 06:08:34;;;;;;;5.70;3.55;;;;;;;24.11;54.98;101448.28;4986774;28;20030;-65
2023/08/24 06:11:00;;;;;;;5.78;3.47;;;;;;;24.11;54.50;101433.16;4986588;28;20395;-67
2023/08/24 06:13:26;;;;;;;7.43;3.30;;;;;;;24.11;54.78;101417.16;4986056;28;20093;-66
2023/08/24 06:15:52;;;;;;;6.07;3.25;;;;;;;24.11;54.81;101417.16;4986580;28;20700;-64
2023/08/24 06:18:17;;;;;;;6.13;3.40;;;;;;;24.10;54.89;101415.50;4986702;28;20042;-66
2023/08/24 06:20:42;;;;;;;7.15;3.50;;;;;;;24.09;54.77;101421.81;4986265;28;20125;-64
2023/08/24 06:23:08;;;;;;;6.15;3.42;;;;;;;24.10;54.63;101431.50;4986513;28;20034;-65
2023/08/24 06:25:34;;;;;;;6.38;3.38;;;;;;;24.10;54.39;101434.16;4986523;28;20104;-64
2023/08/24 06:27:59;;;;;;;6.63;3.47;;;;;;;24.09;54.52;101435.97;4986260;28;20077;-64
2023/08/24 06:30:27;;;;;;;5.65;3.00;;;;;;;24.09;54.88;101440.44;4985931;28;20089;-64
2023/08/24 06:32:52;;;;;;;5.80;3.30;;;;;;;24.12;54.51;101442.00;4986846;28;20057;-64
2023/08/24 06:35:18;;;;;;;5.90;2.80;;;;;;;24.10;54.69;101434.16;4986862;28;20050;-65
2023/08/24 06:37:43;;;;;;;6.28;3.65;;;;;;;24.10;54.77;101436.81;4986437;28;20042;-66
2023/08/24 06:40:09;;;;;;;5.07;2.95;;;;;;;24.11;54.58;101435.81;4986473;28;20073;-62
2023/08/24 06:42:34;;;;;;;5.13;3.05;;;;;;;24.11;54.60;101433.16;4987533;28;20045;-63
2023/08/24 06:45:00;;;;;;;6.50;3.38;;;;;;;24.11;54.63;101433.16;4989144;28;20033;-64
2023/08/24 06:47:25;;;;;;;4.68;2.63;;;;;;;24.11;54.79;101432.31;4989829;28;20038;-64
2023/08/24 06:49:50;;;;;;;5.90;3.20;;;;;;;24.11;54.44;101433.16;4990026;28;20185;-63
2023/08/24 06:52:16;;;;;;;5.18;3.08;;;;;;;24.11;54.76;101438.47;4990208;28;20038;-64
2023/08/24 06:54:41;;;;;;;4.43;2.53;;;;;;;24.10;54.72;101439.47;4990156;28;20038;-64
2023/08/24 06:57:06;;;;;;;5.18;2.60;;;;;;;24.11;55.07;101430.47;4989067;28;20073;-64
2023/08/24 06:59:32;;;;;;;5.05;2.50;;;;;;;24.09;55.07;101430.63;4989720;28;20122;-64
2023/08/24 07:01:57;;;;;;;5.10;2.63;;;;;;;24.11;55.02;101434.97;4990658;28;20037;-64
2023/08/24 07:04:23;;;;;;;4.65;2.58;;;;;;;24.12;55.12;101439.31;4989814;28;20061;-63
2023/08/24 07:06:48;;;;;;;5.35;3.08;;;;;;;24.12;55.21;101431.34;4989358;28;20113;-63
2023/08/24 07:09:15;;;;;;;5.38;3.00;;;;;;;24.13;54.98;101430.34;4989758;28;20140;-63
2023/08/24 07:11:40;;;;;;;5.28;2.90;;;;;;;24.14;54.92;101416.03;4989347;28;20038;-65
2023/08/24 07:14:06;;;;;;;5.18;2.80;;;;;;;24.13;54.83;101412.53;4987752;28;20395;-65
2023/08/24 07:16:31;;;;;;;5.07;3.17;;;;;;;24.22;55.23;101416.13;4989768;28;20034;-65
2023/08/24 07:18:57;;;;;;;10.88;2.95;;;;;;;24.26;55.03;101405.00;4989366;28;20034;-64
2023/08/24 07:21:22;;;;;;;4.60;3.00;;;;;;;24.31;55.10;101409.03;4989174;28;20101;-64
2023/08/24 07:23:47;;;;;;;6.75;2.88;;;;;;;24.35;55.17;101407.75;4989442;28;20030;-66
2023/08/24 07:26:13;;;;;;;6.97;2.90;;;;;;;24.36;54.74;101406.78;4988907;28;20046;-64
2023/08/24 07:28:38;;;;;;;5.85;3.30;;;;;;;24.37;54.82;101411.09;4989498;28;20058;-65
2023/08/24 07:31:11;;;;;;;8.38;3.78;;;;;;;24.34;54.88;101406.91;4990133;28;20034;-65
2023/08/24 07:33:41;;;;;;;6.03;2.92;;;;;;;24.37;55.22;101401.28;4990252;28;20074;-64
2023/08/24 07:36:06;;;;;;;5.55;3.40;;;;;;;24.39;55.13;101395.81;4989023;28;20030;-64
2023/08/24 07:38:32;;;;;;;5.88;3.72;;;;;;;24.40;55.22;101403.66;4989783;28;20041;-66
2023/08/24 07:40:58;;;;;;;6.45;3.55;;;;;;;24.42;54.99;101406.16;4988692;28;20436;-66
2023/08/24 07:43:24;;;;;;;5.43;3.33;;;;;;;24.44;55.23;101396.19;4988597;28;20053;-66
2023/08/24 07:45:49;;;;;;;5.18;3.03;;;;;;;24.44;55.07;101396.19;4989455;28;20394;-65
2023/08/24 07:48:15;;;;;;;6.15;3.22;;;;;;;24.47;55.44;101397.69;4988992;28;20148;-66
2023/08/24 07:50:40;;;;;;;7.18;3.28;;;;;;;24.47;55.12;101401.22;4989791;28;20038;-65
2023/08/24 07:53:06;;;;;;;5.50;2.92;;;;;;;24.48;55.28;101394.88;4988222;28;20034;-66
2023/08/24 07:55:31;;;;;;;7.68;3.50;;;;;;;24.49;55.19;101399.22;4988001;28;20045;-65
2023/08/24 07:57:57;;;;;;;5.28;2.83;;;;;;;24.50;55.49;101400.03;4986893;28;20038;-65
2023/08/24 08:00:24;;;;;;;5.10;3.10;;;;;;;24.51;55.65;101407.88;4987075;28;20462;-66
2023/08/24 08:02:50;;;;;;;5.82;3.13;;;;;;;24.52;55.77;101408.75;4987779;28;20030;-68
2023/08/24 08:05:16;;;;;;;5.18;3.15;;;;;;;24.55;55.88;101405.78;4986981;28;21543;-68
2023/08/24 08:07:41;;;;;;;7.25;3.00;;;;;;;24.54;55.50;101396.91;4987631;28;21376;-66
2023/08/24 08:10:07;;;;;;;6.47;3.20;;;;;;;24.58;55.50;101397.50;4987318;28;20906;-68
2023/08/24 08:12:33;;;;;;;6.57;2.95;;;;;;;24.56;55.52;101395.00;4988165;28;20084;-67
2023/08/24 08:14:59;;;;;;;7.38;3.10;;;;;;;24.58;55.73;101395.66;4988064;28;20133;-67
2023/08/24 08:17:24;;;;;;;7.88;3.40;;;;;;;24.61;55.86;101395.34;4987887;28;20121;-66
2023/08/24 08:19:55;;;;;;;5.70;3.25;;;;;;;24.60;55.78;101384.84;4988544;28;20030;-66
2023/08/24 08:22:20;;;;;;;6.32;3.03;;;;;;;24.63;55.84;101381.88;4987729;28;20026;-66
2023/08/24 08:24:45;;;;;;;6.80;3.33;;;;;;;24.64;55.88;101375.53;4986783;28;20041;-67
2023/08/24 08:27:11;;;;;;;5.90;3.08;;;;;;;24.67;55.46;101369.91;4986283;28;20054;-66
2023/08/24 08:29:36;;;;;;;5.70;3.08;;;;;;;24.70;55.28;101374.94;4986997;28;20463;-67
2023/08/24 08:32:02;;;;;;;5.63;3.05;;;;;;;24.71;55.60;101375.78;4986534;28;20089;-65
2023/08/24 08:34:27;;;;;;;6.10;3.08;;;;;;;24.70;55.50;101380.25;4986455;28;20121;-65
2023/08/24 08:36:52;;;;;;;7.90;2.87;;;;;;;24.71;55.77;101371.28;4987031;28;20038;-67
2023/08/24 08:39:18;;;;;;;8.55;2.95;;;;;;;24.70;55.53;101364.25;4986307;28;20272;-66
2023/08/24 08:41:44;;;;;;;6.97;3.08;;;;;;;24.72;55.70;101362.31;4985468;28;20128;-66
2023/08/24 08:44:13;;;;;;;4.93;2.80;;;;;;;24.73;55.36;101353.28;4986446;28;20038;-65
2023/08/24 08:46:40;;;;;;;5.20;2.80;;;;;;;24.73;55.19;101350.63;4986117;28;20042;-66
2023/08/24 08:49:07;;;;;;;5.32;2.65;;;;;;;24.74;55.78;101333.66;4986437;28;20045;-65
2023/08/24 08:51:33;;;;;;;6.55;2.95;;;;;;;24.74;55.36;101328.31;4987001;28;20491;-66
2023/08/24 08:53:58;;;;;;;5.32;2.85;;;;;;;24.75;55.71;101322.00;4986329;28;20185;-66
2023/08/24 08:56:24;;;;;;;5.32;2.75;;;;;;;24.77;55.41;101320.03;4986449;28;20186;-68
2023/08/24 08:58:50;;;;;;;5.18;2.75;;;;;;;24.76;55.43;101310.34;4987139;28;20470;-67
2023/08/24 09:01:17;;;;;;;5.88;3.00;;;;;;;24.79;55.39;101298.53;4984236;28;20034;-66
2023/08/24 09:03:44;;;;;;;5.97;3.10;;;;;;;24.79;55.66;101296.69;4986023;28;20034;-65
2023/08/24 09:06:09;;;;;;;5.05;2.47;;;;;;;24.78;55.36;101289.72;4985785;28;20034;-62
2023/08/24 09:08:34;;;;;;;5.72;2.75;;;;;;;24.77;55.47;101277.38;4985584;28;20026;-64
2023/08/24 09:11:00;;;;;;;5.20;2.72;;;;;;;24.80;55.51;101270.88;4986847;28;20042;-67
2023/08/24 09:13:26;;;;;;;5.53;2.80;;;;;;;24.79;55.09;101269.22;4986466;28;20046;-65
2023/08/24 09:15:55;;;;;;;6.35;2.75;;;;;;;24.77;55.63;101260.56;4984928;28;20061;-65
2023/08/24 09:18:20;;;;;;;6.15;3.00;;;;;;;24.81;55.46;101254.72;4987648;28;20731;-67
2023/08/24 09:20:48;;;;;;;4.50;2.70;;;;;;;24.82;55.31;101247.59;4987739;28;20271;-67
2023/08/24 09:23:20;;;;;;;4.07;2.60;;;;;;;24.82;55.70;101244.91;5001092;28;20041;-68
2023/08/24 09:25:49;;;;;;;6.22;2.78;;;;;;;24.84;55.55;101247.44;4987587;28;20097;-65
2023/08/24 09:28:22;;;;;;;6.32;3.00;;;;;;;24.81;55.51;101237.91;4986158;28;20042;-67
2023/08/24 09:30:52;;;;;;;5.85;2.65;;;;;;;24.85;55.00;101251.75;4987057;28;20042;-64
2023/08/24 09:33:18;;;;;;;4.95;2.80;;;;;;;24.86;55.29;101245.44;4986397;28;20049;-65
2023/08/24 09:35:43;;;;;;;5.82;2.72;;;;;;;24.84;55.13;101253.59;4986745;28;20026;-67
2023/08/24 09:38:19;;;;;;;5.72;2.83;;;;;;;24.84;55.55;101266.91;4986757;28;20514;-67
2023/08/24 09:40:55;;;;;;;6.60;2.80;;;;;;;24.79;55.42;101280.72;4985473;28;20485;-66
2023/08/24 09:43:21;;;;;;;5.20;2.25;;;;;;;24.78;55.67;101299.53;5001277;28;20379;-66
2023/08/24 09:45:54;;;;;;;6.05;2.67;;;;;;;24.71;56.19;101294.00;4985750;28;20031;-66
2023/08/24 09:48:21;;;;;;;4.70;2.75;;;;;;;24.71;55.85;101301.16;4986804;28;20505;-65
2023/08/24 09:50:48;;;;;;;5.97;2.60;;;;;;;24.70;55.81;101300.31;4988479;28;20161;-66
2023/08/24 09:53:20;;;;;;;5.20;2.58;;;;;;;24.67;56.37;101300.63;4987012;28;20042;-64
2023/08/24 09:55:49;;;;;;;5.22;2.80;;;;;;;24.68;56.13;101304.97;4987231;28;20366;-67
2023/08/24 09:58:15;;;;;;;4.95;2.80;;;;;;;24.71;56.43;101315.31;4986548;28;20503;-68
2023/08/24 10:00:41;;;;;;;6.38;2.50;;;;;;;24.71;56.45;101319.81;4986580;28;20045;-65
2023/08/24 10:03:08;;;;;;;5.20;2.80;;;;;;;24.70;56.56;101320.78;4986620;28;20030;-68
2023/08/24 10:05:34;;;;;;;5.65;2.35;;;;;;;24.68;56.32;101320.97;4986237;28;20049;-67
2023/08/24 10:08:01;;;;;;;8.75;2.80;;;;;;;24.67;56.47;101321.94;4986338;28;20034;-68
2023/08/24 10:10:29;;;;;;;5.85;2.88;;;;;;;24.68;56.59;101328.13;4987745;28;20034;-67
2023/08/24 10:13:08;;;;;;;6.53;2.90;;;;;;;24.67;56.74;101335.25;4986860;28;20040;-66
2023/08/24 10:15:37;;;;;;;5.97;2.88;;;;;;;24.69;56.58;101333.31;4987059;28;20441;-67
2023/08/24 10:18:03;;;;;;;5.88;2.75;;;;;;;24.71;56.70;101330.47;4987901;28;20117;-68
2023/08/24 10:20:29;;;;;;;4.97;2.63;;;;;;;24.70;56.66;101323.47;4989757;28;20364;-67
2023/08/24 10:22:57;;;;;;;4.25;2.78;;;;;;;24.70;56.81;101321.63;4990956;28;20030;-67
2023/08/24 10:25:24;;;;;;;5.75;3.00;;;;;;;24.70;56.54;101318.97;4990762;28;20128;-67
2023/08/24 10:27:50;;;;;;;6.05;2.97;;;;;;;24.71;56.71;101323.31;4990010;28;20046;-68
2023/08/24 10:30:16;;;;;;;5.07;2.58;;;;;;;24.68;57.03;101323.63;4990884;28;20069;-68
2023/08/24 10:32:43;;;;;;;5.82;2.90;;;;;;;24.70;56.56;101334.13;4990945;28;20034;-66
2023/08/24 10:35:08;;;;;;;6.55;3.03;;;;;;;24.70;56.71;101345.59;4991753;28;20436;-66
2023/08/24 10:37:34;;;;;;;5.35;2.60;;;;;;;24.67;57.26;101332.59;4991621;28;20120;-67
2023/08/24 10:40:00;;;;;;;5.05;2.65;;;;;;;24.66;57.44;101340.75;4991503;28;20113;-67
2023/08/24 10:42:26;;;;;;;5.00;2.50;;;;;;;24.62;57.14;101343.75;4988342;28;20494;-68
2023/08/24 10:44:52;;;;;;;5.40;2.88;;;;;;;24.59;57.28;101365.38;4993809;28;20030;-67
2023/08/24 10:47:22;;;;;;;5.90;2.75;;;;;;;24.59;57.38;101361.84;4993518;28;20030;-67
2023/08/24 10:49:56;;;;;;;6.30;2.70;;;;;;;24.55;57.87;101350.66;4991525;28;20038;-68
2023/08/24 10:52:27;;;;;;;5.85;2.92;;;;;;;24.55;58.07;101355.16;4990731;28;20045;-67
2023/08/24 10:54:53;;;;;;;7.45;3.03;;;;;;;24.55;57.83;101352.47;4989962;28;20038;-68
2023/08/24 10:57:21;;;;;;;5.03;2.63;;;;;;;24.52;57.90;101336.81;4990370;28;20046;-68
2023/08/24 11:00:05;;;;;;;6.30;2.72;;;;;;;24.52;57.75;101332.31;4989752;28;20034;-69
2023/08/24 11:02:41;;;;;;;6.10;2.88;;;;;;;24.53;57.91;101327.81;4989957;28;20041;-66
2023/08/24 11:05:15;;;;;;;6.50;2.88;;;;;;;24.53;57.71;101334.00;4990630;28;20045;-66
2023/08/24 11:07:58;;;;;;;6.32;2.72;;;;;;;24.56;58.02;101333.72;4989439;28;20053;-66
2023/08/24 11:10:25;;;;;;;5.15;2.63;;;;;;;24.59;57.74;101322.75;4991246;28;20461;-65
2023/08/24 11:13:19;;;;;;;6.07;2.97;;;;;;;24.62;57.35;101314.44;4991668;28;20038;-67
2023/08/24 11:15:47;;;;;;;5.57;2.88;;;;;;;24.66;57.65;101312.28;4989171;28;20172;-66
2023/08/24 11:18:18;;;;;;;10.00;3.08;;;;;;;24.69;57.44;101308.47;4989342;28;20073;-66
2023/08/24 11:20:50;;;;;;;5.13;3.20;;;;;;;24.67;57.82;101287.28;4988868;28;20042;-66
2023/08/24 11:23:16;;;;;;;7.35;3.13;;;;;;;24.68;57.64;101273.00;4989336;28;20046;-65